createdAt,value
2018-10-19T00:01:59.810Z,100554.00
2018-10-19T00:04:30.038Z,100554.00
2018-10-19T00:06:59.386Z,100555.00
2018-10-19T00:09:30.962Z,100557.00
2018-10-19T00:12:00.908Z,100556.00
2018-10-19T00:14:31.828Z,100556.00
2018-10-19T00:17:01.163Z,100553.00
2018-10-19T00:19:32.470Z,100555.00
2018-10-19T00:22:03.419Z,100550.00
2018-10-19T00:24:33.067Z,100548.00
2018-10-19T00:27:02.600Z,100549.00
2018-10-19T00:29:32.282Z,100547.00
2018-10-19T00:32:02.156Z,100550.00
2018-10-19T00:34:32.962Z,100549.00
2018-10-19T00:37:04.156Z,100549.00
2018-10-19T00:39:34.249Z,100551.00
2018-10-19T00:42:04.421Z,100552.00
2018-10-19T00:44:38.398Z,100552.00
2018-10-19T00:47:09.682Z,100551.00
2018-10-19T00:49:39.289Z,100551.00
2018-10-19T00:52:08.827Z,100551.00
2018-10-19T00:54:38.698Z,100544.00
2018-10-19T00:57:08.365Z,100542.00
2018-10-19T00:59:37.742Z,100537.00
2018-10-19T01:02:07.283Z,100535.00
2018-10-19T01:04:36.762Z,100540.00
2018-10-19T01:07:06.311Z,100535.00
2018-10-19T01:09:36.300Z,100532.00
2018-10-19T01:12:07.587Z,100528.00
2018-10-19T01:14:37.065Z,100535.00
2018-10-19T01:17:06.650Z,100536.00
2018-10-19T01:19:38.561Z,100534.00
2018-10-19T01:22:07.809Z,100539.00
2018-10-19T01:24:37.152Z,100531.00
2018-10-19T01:27:07.592Z,100526.00
2018-10-19T01:29:37.051Z,100519.00
2018-10-19T01:32:06.570Z,100524.00
2018-10-19T01:34:38.719Z,100520.00
2018-10-19T01:37:08.463Z,100520.00
2018-10-19T01:39:38.094Z,100527.00
2018-10-19T01:42:07.409Z,100527.00
2018-10-19T01:44:36.781Z,100528.00
2018-10-19T01:47:07.030Z,100535.00
2018-10-19T01:49:36.578Z,100535.00
2018-10-19T01:52:06.330Z,100536.00
2018-10-19T01:54:36.020Z,100540.00
2018-10-19T01:57:05.718Z,100536.00
2018-10-19T01:59:36.841Z,100537.00
2018-10-19T02:02:06.679Z,100540.00
2018-10-19T02:04:36.463Z,100545.00
2018-10-19T02:07:06.414Z,100544.00
2018-10-19T02:09:37.087Z,100539.00
2018-10-19T02:12:07.217Z,100546.00
2018-10-19T02:14:38.134Z,100546.00
2018-10-19T02:17:08.181Z,100547.00
2018-10-19T02:19:39.546Z,100543.00
2018-10-19T02:22:09.364Z,100541.00
2018-10-19T02:24:41.611Z,100544.00
2018-10-19T02:27:10.950Z,100539.00
2018-10-19T02:29:42.736Z,100541.00
2018-10-19T02:32:13.056Z,100541.00
2018-10-19T02:34:43.082Z,100538.00
2018-10-19T02:37:12.555Z,100544.00
2018-10-19T02:39:42.029Z,100539.00
2018-10-19T02:42:11.280Z,100549.00
2018-10-19T02:44:42.751Z,100545.00
2018-10-19T02:47:12.941Z,100543.00
2018-10-19T02:49:42.250Z,100542.00
2018-10-19T02:52:11.530Z,100542.00
2018-10-19T02:54:40.731Z,100543.00
2018-10-19T02:57:10.058Z,100544.00
2018-10-19T02:59:39.324Z,100545.00
2018-10-19T03:02:08.547Z,100545.00
2018-10-19T03:04:38.902Z,100549.00
2018-10-19T03:07:08.661Z,100549.00
2018-10-19T03:09:38.924Z,100552.00
2018-10-19T03:12:08.442Z,100554.00
2018-10-19T03:14:38.627Z,100548.00
2018-10-19T03:17:08.496Z,100552.00
2018-10-19T03:19:38.787Z,100546.00
2018-10-19T03:22:08.728Z,100548.00
2018-10-19T03:24:39.654Z,100546.00
2018-10-19T03:27:09.702Z,100542.00
2018-10-19T03:29:39.631Z,100543.00
2018-10-19T03:32:11.108Z,100539.00
2018-10-19T03:34:41.780Z,100544.00
2018-10-19T03:37:11.210Z,100542.00
2018-10-19T03:39:40.565Z,100549.00
2018-10-19T03:42:10.033Z,100553.00
2018-10-19T03:44:39.765Z,100556.00
2018-10-19T03:47:11.518Z,100557.00
2018-10-19T03:49:41.773Z,100553.00
2018-10-19T03:52:12.178Z,100556.00
2018-10-19T03:54:41.540Z,100556.00
2018-10-19T03:57:10.931Z,100560.00
2018-10-19T03:59:41.168Z,100558.00
2018-10-19T04:02:12.069Z,100563.00
2018-10-19T04:04:42.157Z,100562.00
2018-10-19T04:07:11.407Z,100562.00
2018-10-19T04:09:41.769Z,100560.00
2018-10-19T04:12:11.678Z,100566.00
2018-10-19T04:14:41.447Z,100564.00
2018-10-19T04:17:11.161Z,100564.00
2018-10-19T04:19:40.890Z,100564.00
2018-10-19T04:22:11.752Z,100563.00
2018-10-19T04:24:41.974Z,100562.00
2018-10-19T04:27:11.470Z,100560.00
2018-10-19T04:29:41.033Z,100561.00
2018-10-19T04:32:11.972Z,100558.00
2018-10-19T04:34:41.557Z,100556.00
2018-10-19T04:37:11.965Z,100563.00
2018-10-19T04:39:41.650Z,100563.00
2018-10-19T04:42:11.037Z,100555.00
2018-10-19T04:44:40.636Z,100556.00
2018-10-19T04:47:10.249Z,100556.00
2018-10-19T04:49:40.325Z,100561.00
2018-10-19T04:52:10.772Z,100560.00
2018-10-19T04:54:40.613Z,100563.00
2018-10-19T04:57:10.068Z,100562.00
2018-10-19T04:59:41.414Z,100562.00
2018-10-19T05:02:11.875Z,100556.00
2018-10-19T05:04:42.204Z,100564.00
2018-10-19T05:07:11.789Z,100566.00
2018-10-19T05:09:42.908Z,100565.00
2018-10-19T05:12:12.282Z,100561.00
2018-10-19T05:14:44.263Z,100565.00
2018-10-19T05:17:16.564Z,100559.00
2018-10-19T05:19:46.974Z,100559.00
2018-10-19T05:22:18.669Z,100562.00
2018-10-19T05:24:49.149Z,100564.00
2018-10-19T05:27:22.570Z,100568.00
2018-10-19T05:29:54.429Z,100565.00
2018-10-19T05:32:24.812Z,100570.00
2018-10-19T05:34:57.665Z,100561.00
2018-10-19T05:37:28.951Z,100570.00
2018-10-19T05:39:59.249Z,100570.00
2018-10-19T05:42:30.813Z,100571.00
2018-10-19T05:45:03.597Z,100573.00
2018-10-19T05:47:33.779Z,100575.00
2018-10-19T05:50:04.096Z,100572.00
2018-10-19T05:52:35.546Z,100572.00
2018-10-19T05:55:07.520Z,100572.00
2018-10-19T05:57:37.880Z,100572.00
2018-10-19T06:00:13.161Z,100570.00
2018-10-19T06:02:47.535Z,100575.00
2018-10-19T06:05:17.367Z,100570.00
2018-10-19T06:07:47.725Z,100573.00
2018-10-19T06:10:20.555Z,100568.00
2018-10-19T06:12:51.025Z,100566.00
2018-10-19T06:15:21.694Z,100570.00
2018-10-19T06:17:53.567Z,100572.00
2018-10-19T06:20:24.600Z,100579.00
2018-10-19T06:22:54.935Z,100581.00
2018-10-19T06:25:25.695Z,100583.00
2018-10-19T06:27:56.155Z,100586.00
2018-10-19T06:30:26.403Z,100590.00
2018-10-19T06:32:58.067Z,100593.00
2018-10-19T06:35:31.808Z,100592.00
2018-10-19T06:38:10.007Z,100592.00
2018-10-19T06:40:48.035Z,100587.00
2018-10-19T06:43:24.125Z,100585.00
2018-10-19T06:45:54.606Z,100584.00
2018-10-19T06:48:27.157Z,100589.00
2018-10-19T06:51:04.456Z,100590.00
2018-10-19T06:53:36.636Z,100594.00
2018-10-19T06:56:12.436Z,100596.00
2018-10-19T06:58:49.725Z,100594.00
2018-10-19T07:01:29.981Z,100599.00
2018-10-19T07:04:02.833Z,100599.00
2018-10-19T07:06:34.595Z,100600.00
2018-10-19T07:09:05.598Z,100597.00
2018-10-19T07:11:37.546Z,100604.00
2018-10-19T07:14:14.343Z,100605.00
2018-10-19T07:16:47.376Z,100609.00
2018-10-19T07:19:18.234Z,100602.00
2018-10-19T07:24:22.752Z,100602.00
2018-10-19T07:26:52.024Z,100605.00
2018-10-19T07:29:21.204Z,100607.00
2018-10-19T07:31:50.415Z,100605.00
2018-10-19T07:34:20.333Z,100610.00
2018-10-19T07:36:49.520Z,100609.00
2018-10-19T07:39:18.636Z,100613.00
2018-10-19T07:41:47.822Z,100614.00
2018-10-19T07:44:16.992Z,100626.00
2018-10-19T07:46:46.211Z,100621.00
2018-10-19T07:49:15.352Z,100630.00
2018-10-19T07:51:44.773Z,100623.00
2018-10-19T07:54:14.247Z,100632.00
2018-10-19T07:56:43.653Z,100629.00
2018-10-19T07:59:13.373Z,100631.00
2018-10-19T08:01:42.627Z,100632.00
2018-10-19T08:04:12.958Z,100629.00
2018-10-19T08:06:42.411Z,100630.00
2018-10-19T08:09:12.004Z,100630.00
2018-10-19T08:11:41.464Z,100636.00
2018-10-19T08:14:10.640Z,100634.00
2018-10-19T08:16:39.698Z,100638.00
2018-10-19T08:19:08.968Z,100632.00
2018-10-19T08:21:38.089Z,100643.00
2018-10-19T08:24:07.244Z,100640.00
2018-10-19T08:26:36.418Z,100643.00
2018-10-19T08:29:05.878Z,100645.00
2018-10-19T08:31:35.099Z,100648.00
2018-10-19T08:34:04.217Z,100654.00
2018-10-19T08:36:33.432Z,100650.00
2018-10-19T08:39:02.715Z,100655.00
2018-10-19T08:41:31.965Z,100660.00
2018-10-19T08:44:01.088Z,100658.00
2018-10-19T08:46:35.688Z,100653.00
2018-10-19T08:49:05.982Z,100653.00
2018-10-19T08:51:35.287Z,100656.00
2018-10-19T08:54:04.568Z,100657.00
2018-10-19T08:56:33.700Z,100657.00
2018-10-19T08:59:02.883Z,100660.00
2018-10-19T09:01:32.000Z,100664.00
2018-10-19T09:04:01.283Z,100661.00
2018-10-19T09:06:30.467Z,100659.00
2018-10-19T09:09:00.094Z,100661.00
2018-10-19T09:11:29.367Z,100664.00
2018-10-19T09:13:58.627Z,100669.00
2018-10-19T09:16:28.431Z,100669.00
2018-10-19T09:18:57.595Z,100663.00
2018-10-19T09:21:26.715Z,100665.00
2018-10-19T09:23:56.025Z,100661.00
2018-10-19T09:26:25.172Z,100658.00
2018-10-19T09:28:54.425Z,100661.00
2018-10-19T09:31:23.737Z,100659.00
2018-10-19T09:33:53.178Z,100653.00
2018-10-19T09:36:22.446Z,100642.00
2018-10-19T09:38:51.468Z,100636.00
2018-10-19T09:41:20.591Z,100638.00
2018-10-19T09:43:50.429Z,100643.00
2018-10-19T09:46:19.516Z,100639.00
2018-10-19T09:48:48.663Z,100636.00
2018-10-19T09:51:17.958Z,100633.00
2018-10-19T09:53:47.266Z,100636.00
2018-10-19T09:56:16.441Z,100636.00
2018-10-19T09:58:45.586Z,100645.00
2018-10-19T10:01:20.228Z,100642.00
2018-10-19T10:03:49.472Z,100650.00
2018-10-19T10:06:18.935Z,100637.00
2018-10-19T10:08:48.101Z,100633.00
2018-10-19T10:13:53.260Z,100642.00
2018-10-19T10:16:22.522Z,100636.00
2018-10-19T10:18:52.100Z,100631.00
2018-10-19T10:21:21.531Z,100624.00
2018-10-19T10:23:51.091Z,100624.00
2018-10-19T10:26:20.556Z,100628.00
2018-10-19T10:28:50.925Z,100624.00
2018-10-19T10:31:20.582Z,100618.00
2018-10-19T10:33:50.292Z,100618.00
2018-10-19T10:36:19.592Z,100620.00
2018-10-19T10:38:48.982Z,100625.00
2018-10-19T10:41:19.421Z,100616.00
2018-10-19T10:43:48.813Z,100608.00
2018-10-19T10:46:18.154Z,100610.00
2018-10-19T10:48:47.594Z,100608.00
2018-10-19T10:51:16.934Z,100602.00
2018-10-19T10:53:46.315Z,100598.00
2018-10-19T10:56:15.929Z,100594.00
2018-10-19T10:58:45.255Z,100600.00
2018-10-19T11:01:15.250Z,100593.00
2018-10-19T11:03:46.459Z,100582.00
2018-10-19T11:06:15.990Z,100580.00
2018-10-19T11:08:46.444Z,100583.00
2018-10-19T11:11:17.019Z,100593.00
2018-10-19T11:13:46.193Z,100590.00
2018-10-19T11:16:17.417Z,100589.00
2018-10-19T11:18:47.028Z,100584.00
2018-10-19T11:21:17.048Z,100580.00
2018-10-19T11:23:46.550Z,100578.00
2018-10-19T11:26:16.397Z,100577.00
2018-10-19T11:28:46.045Z,100576.00
2018-10-19T11:31:15.590Z,100580.00
2018-10-19T11:33:44.724Z,100581.00
2018-10-19T11:36:14.573Z,100582.00
2018-10-19T11:38:44.072Z,100585.00
2018-10-19T11:41:13.437Z,100584.00
2018-10-19T11:43:42.700Z,100582.00
2018-10-19T11:46:12.723Z,100579.00
2018-10-19T11:48:41.833Z,100573.00
2018-10-19T11:51:11.270Z,100579.00
2018-10-19T11:53:40.658Z,100577.00
2018-10-19T11:56:10.717Z,100572.00
2018-10-19T11:58:40.241Z,100577.00
2018-10-19T12:01:09.633Z,100575.00
2018-10-19T12:03:39.218Z,100573.00
2018-10-19T12:06:08.692Z,100574.00
2018-10-19T12:08:38.218Z,100573.00
2018-10-19T12:11:07.452Z,100576.00
2018-10-19T12:13:36.607Z,100574.00
2018-10-19T12:16:07.078Z,100567.00
2018-10-19T12:18:36.372Z,100564.00
2018-10-19T12:21:06.388Z,100571.00
2018-10-19T12:23:35.794Z,100574.00
2018-10-19T12:26:05.407Z,100575.00
2018-10-19T12:28:34.534Z,100576.00
2018-10-19T12:31:03.919Z,100572.00
2018-10-19T12:33:33.200Z,100564.00
2018-10-19T12:36:02.531Z,100560.00
2018-10-19T12:38:31.809Z,100561.00
2018-10-19T12:41:01.120Z,100552.00
2018-10-19T12:43:30.337Z,100553.00
2018-10-19T12:46:42.944Z,100561.00
2018-10-19T12:49:13.728Z,100564.00
2018-10-19T12:51:42.978Z,100562.00
2018-10-19T12:54:12.351Z,100562.00
2018-10-19T12:56:41.818Z,100562.00
2018-10-19T12:59:11.502Z,100556.00
2018-10-19T13:01:40.794Z,100554.00
2018-10-19T13:04:10.618Z,100548.00
2018-10-19T13:06:39.849Z,100545.00
2018-10-19T13:09:12.558Z,100551.00
2018-10-19T13:11:44.978Z,100554.00
2018-10-19T13:14:14.296Z,100551.00
2018-10-19T13:16:43.614Z,100551.00
2018-10-19T13:19:14.181Z,100542.00
2018-10-19T13:21:43.590Z,100537.00
2018-10-19T13:24:13.046Z,100538.00
2018-10-19T13:26:42.192Z,100534.00
2018-10-19T13:29:11.676Z,100533.00
2018-10-19T13:31:42.230Z,100534.00
2018-10-19T13:34:11.594Z,100535.00
2018-10-19T13:36:41.161Z,100534.00
2018-10-19T13:39:12.368Z,100535.00
2018-10-19T13:41:42.930Z,100532.00
2018-10-19T13:44:12.293Z,100527.00
2018-10-19T13:46:42.164Z,100527.00
2018-10-19T13:49:11.506Z,100518.00
2018-10-19T13:51:41.102Z,100514.00
2018-10-19T13:54:11.032Z,100514.00
2018-10-19T13:56:40.449Z,100509.00
2018-10-19T13:59:09.751Z,100506.00
2018-10-19T14:01:38.906Z,100509.00
2018-10-19T14:04:08.176Z,100512.00
2018-10-19T14:06:37.381Z,100513.00
2018-10-19T14:09:09.766Z,100505.00
2018-10-19T14:11:39.810Z,100509.00
2018-10-19T14:14:09.155Z,100509.00
2018-10-19T14:16:38.225Z,100503.00
2018-10-19T14:19:07.514Z,100511.00
2018-10-19T14:21:36.680Z,100510.00
2018-10-19T14:24:05.853Z,100505.00
2018-10-19T14:26:35.056Z,100507.00
2018-10-19T14:29:04.552Z,100503.00
2018-10-19T14:31:33.708Z,100503.00
2018-10-19T14:34:03.017Z,100505.00
2018-10-19T14:36:32.210Z,100504.00
2018-10-19T14:39:01.493Z,100500.00
2018-10-19T14:41:30.545Z,100493.00
2018-10-19T14:43:59.946Z,100491.00
2018-10-19T14:46:29.214Z,100490.00
2018-10-19T14:48:58.645Z,100493.00
2018-10-19T14:51:27.823Z,100496.00
2018-10-19T14:53:57.079Z,100492.00
2018-10-19T14:56:26.193Z,100500.00
2018-10-19T14:58:55.337Z,100496.00
2018-10-19T15:01:24.534Z,100503.00
2018-10-19T15:03:53.944Z,100507.00
2018-10-19T15:06:23.066Z,100507.00
2018-10-19T15:08:52.260Z,100515.00
2018-10-19T15:11:22.185Z,100517.00
2018-10-19T15:13:50.891Z,100516.00
2018-10-19T15:16:20.135Z,100520.00
2018-10-19T15:18:49.281Z,100528.00
2018-10-19T15:21:18.512Z,100516.00
2018-10-19T15:23:47.675Z,100519.00
2018-10-19T15:26:16.911Z,100525.00
2018-10-19T15:28:46.028Z,100526.00
2018-10-19T15:31:15.293Z,100524.00
2018-10-19T15:33:44.500Z,100528.00
2018-10-19T15:36:13.813Z,100533.00
2018-10-19T15:38:42.828Z,100532.00
2018-10-19T15:41:12.009Z,100530.00
2018-10-19T15:43:41.341Z,100536.00
2018-10-19T15:46:10.506Z,100536.00
2018-10-19T15:48:39.824Z,100538.00
2018-10-19T15:51:09.073Z,100541.00
2018-10-19T15:53:38.098Z,100541.00
2018-10-19T15:56:07.336Z,100541.00
2018-10-19T15:58:36.457Z,100544.00
2018-10-19T16:01:05.726Z,100547.00
2018-10-19T16:03:34.986Z,100548.00
2018-10-19T16:06:04.406Z,100546.00
2018-10-19T16:08:33.603Z,100548.00
2018-10-19T16:11:02.925Z,100548.00
2018-10-19T16:13:32.020Z,100556.00
2018-10-19T16:16:01.446Z,100557.00
2018-10-19T16:18:30.596Z,100557.00
2018-10-19T16:20:59.747Z,100553.00
2018-10-19T16:23:29.169Z,100558.00
2018-10-19T16:25:59.820Z,100559.00
2018-10-19T16:28:29.116Z,100559.00
2018-10-19T16:30:58.161Z,100566.00
2018-10-19T16:33:27.677Z,100562.00
2018-10-19T16:35:56.815Z,100565.00
2018-10-19T16:38:25.981Z,100570.00
2018-10-19T16:40:55.549Z,100568.00
2018-10-19T16:43:24.609Z,100562.00
2018-10-19T16:45:53.923Z,100567.00
2018-10-19T16:48:23.243Z,100562.00
2018-10-19T16:50:52.625Z,100564.00
2018-10-19T16:53:21.749Z,100571.00
2018-10-19T16:55:51.687Z,100574.00
2018-10-19T16:58:20.918Z,100570.00
2018-10-19T17:00:50.068Z,100573.00
2018-10-19T17:03:19.294Z,100579.00
2018-10-19T17:05:48.508Z,100579.00
2018-10-19T17:08:17.896Z,100582.00
2018-10-19T17:10:46.996Z,100584.00
2018-10-19T17:13:19.286Z,100586.00
2018-10-19T17:15:48.544Z,100586.00
2018-10-19T17:18:17.610Z,100585.00
2018-10-19T17:20:47.250Z,100600.00
2018-10-19T17:23:16.602Z,100608.00
2018-10-19T17:25:45.901Z,100614.00
2018-10-19T17:28:15.214Z,100620.00
2018-10-19T17:30:44.475Z,100630.00
2018-10-19T17:33:13.741Z,100640.00
2018-10-19T17:35:44.755Z,100646.00
2018-10-19T17:38:15.069Z,100652.00
2018-10-19T17:40:44.342Z,100655.00
2018-10-19T17:43:13.656Z,100656.00
2018-10-19T17:45:42.894Z,100660.00
2018-10-19T17:48:12.576Z,100663.00
2018-10-19T17:50:42.469Z,100666.00
2018-10-19T17:53:11.793Z,100667.00
2018-10-19T17:55:41.088Z,100675.00
2018-10-19T17:58:10.438Z,100679.00
2018-10-19T18:00:39.898Z,100682.00
2018-10-19T18:03:09.234Z,100688.00
2018-10-19T18:05:38.398Z,100688.00
2018-10-19T18:08:07.646Z,100688.00
2018-10-19T18:10:36.832Z,100691.00
2018-10-19T18:13:06.776Z,100694.00
2018-10-19T18:15:35.994Z,100693.00
2018-10-19T18:18:05.205Z,100694.00
2018-10-19T18:20:34.373Z,100696.00
2018-10-19T18:23:03.650Z,100697.00
2018-10-19T18:25:32.708Z,100697.00
2018-10-19T18:28:01.868Z,100702.00
2018-10-19T18:30:31.041Z,100700.00
2018-10-19T18:33:00.726Z,100699.00
2018-10-19T18:35:30.042Z,100699.00
2018-10-19T18:38:00.209Z,100695.00
2018-10-19T18:40:29.402Z,100703.00
2018-10-19T18:42:58.741Z,100703.00
2018-10-19T18:45:27.970Z,100709.00
2018-10-19T18:47:57.150Z,100709.00
2018-10-19T18:50:26.387Z,100705.00
2018-10-19T18:52:55.614Z,100702.00
2018-10-19T18:55:24.753Z,100710.00
2018-10-19T18:57:53.865Z,100712.00
2018-10-19T19:00:23.044Z,100715.00
2018-10-19T19:02:53.340Z,100713.00
2018-10-19T19:05:22.485Z,100715.00
2018-10-19T19:07:51.607Z,100712.00
2018-10-19T19:10:20.768Z,100715.00
2018-10-19T19:12:53.993Z,100713.00
2018-10-19T19:15:23.146Z,100713.00
2018-10-19T19:17:52.826Z,100717.00
2018-10-19T19:20:27.266Z,100715.00
2018-10-19T19:22:56.430Z,100725.00
2018-10-19T19:25:30.917Z,100725.00
2018-10-19T19:28:00.114Z,100734.00
2018-10-19T19:30:29.462Z,100734.00
2018-10-19T19:33:03.829Z,100739.00
2018-10-19T19:35:32.972Z,100741.00
2018-10-19T19:38:02.508Z,100744.00
2018-10-19T19:40:35.809Z,100740.00
2018-10-19T19:43:05.155Z,100737.00
2018-10-19T19:45:34.278Z,100735.00
2018-10-19T19:48:08.728Z,100735.00
2018-10-19T19:50:37.864Z,100737.00
2018-10-19T19:53:07.012Z,100734.00
2018-10-19T19:55:36.325Z,100747.00
2018-10-19T19:58:05.777Z,100742.00
2018-10-19T20:00:34.867Z,100741.00
2018-10-19T20:03:04.073Z,100737.00
2018-10-19T20:05:34.537Z,100743.00
2018-10-19T20:08:03.915Z,100744.00
2018-10-19T20:10:33.051Z,100745.00
2018-10-19T20:13:02.275Z,100750.00
2018-10-19T20:15:31.420Z,100749.00
2018-10-19T20:18:00.601Z,100746.00
2018-10-19T20:20:29.813Z,100744.00
2018-10-19T20:22:58.941Z,100754.00
2018-10-19T20:25:28.145Z,100750.00
2018-10-19T20:27:57.356Z,100743.00
2018-10-19T20:30:26.552Z,100742.00
2018-10-19T20:32:55.670Z,100744.00
2018-10-19T20:35:25.097Z,100747.00
2018-10-19T20:37:55.283Z,100747.00
2018-10-19T20:40:25.575Z,100751.00
2018-10-19T20:42:55.616Z,100760.00
2018-10-19T20:45:25.588Z,100762.00
2018-10-19T20:47:55.517Z,100769.00
2018-10-19T20:50:24.541Z,100773.00
2018-10-19T20:52:54.037Z,100767.00
2018-10-19T20:55:23.329Z,100764.00
2018-10-19T20:57:52.562Z,100764.00
2018-10-19T21:00:21.812Z,100764.00
2018-10-19T21:02:55.783Z,100766.00
2018-10-19T21:05:25.042Z,100770.00
2018-10-19T21:07:54.401Z,100775.00
2018-10-19T21:10:24.160Z,100777.00
2018-10-19T21:12:53.365Z,100774.00
2018-10-19T21:15:22.692Z,100778.00
2018-10-19T21:17:51.832Z,100780.00
2018-10-19T21:20:20.929Z,100778.00
2018-10-19T21:22:50.019Z,100775.00
2018-10-19T21:25:19.137Z,100772.00
2018-10-19T21:27:48.320Z,100778.00
2018-10-19T21:30:17.411Z,100782.00
2018-10-19T21:32:46.653Z,100784.00
2018-10-19T21:35:15.985Z,100792.00
2018-10-19T21:37:45.544Z,100795.00
2018-10-19T21:40:14.916Z,100799.00
2018-10-19T21:42:44.069Z,100795.00
2018-10-19T21:45:13.675Z,100803.00
2018-10-19T21:47:43.996Z,100800.00
2018-10-19T21:50:14.341Z,100795.00
2018-10-19T21:52:43.443Z,100804.00
2018-10-19T21:55:12.800Z,100810.00
2018-10-19T21:57:41.969Z,100805.00
2018-10-19T22:00:11.273Z,100801.00
2018-10-19T22:02:40.629Z,100809.00
2018-10-19T22:05:10.582Z,100810.00
2018-10-19T22:07:39.736Z,100815.00
2018-10-19T22:10:08.855Z,100818.00
2018-10-19T22:12:39.140Z,100818.00
2018-10-19T22:15:08.865Z,100812.00
2018-10-19T22:17:38.085Z,100815.00
2018-10-19T22:20:07.845Z,100819.00
2018-10-19T22:22:37.178Z,100818.00
2018-10-19T22:25:07.125Z,100816.00
2018-10-19T22:27:36.209Z,100817.00
2018-10-19T22:30:06.140Z,100824.00
2018-10-19T22:32:35.414Z,100824.00
2018-10-19T22:35:04.633Z,100826.00
2018-10-19T22:37:34.421Z,100833.00
2018-10-19T22:40:04.748Z,100843.00
2018-10-19T22:42:33.831Z,100838.00
2018-10-19T22:45:03.189Z,100844.00
2018-10-19T22:47:32.713Z,100835.00
2018-10-19T22:50:01.757Z,100835.00
2018-10-19T22:52:30.869Z,100843.00
2018-10-19T22:54:59.993Z,100837.00
2018-10-19T22:57:29.104Z,100838.00
2018-10-19T22:59:58.213Z,100839.00
2018-10-19T23:02:27.354Z,100846.00
2018-10-19T23:04:56.429Z,100858.00
2018-10-19T23:07:25.600Z,100851.00
2018-10-19T23:09:54.928Z,100859.00
2018-10-19T23:12:25.168Z,100866.00
2018-10-19T23:14:55.077Z,100872.00
2018-10-19T23:17:25.101Z,100874.00
2018-10-19T23:19:54.164Z,100873.00
2018-10-19T23:22:23.312Z,100868.00
2018-10-19T23:24:52.682Z,100875.00
2018-10-19T23:27:21.888Z,100878.00
2018-10-19T23:29:51.284Z,100879.00
2018-10-19T23:32:20.374Z,100883.00
2018-10-19T23:34:50.368Z,100889.00
2018-10-19T23:37:20.588Z,100883.00
2018-10-19T23:39:49.973Z,100883.00
2018-10-19T23:42:20.371Z,100886.00
2018-10-19T23:44:49.625Z,100887.00
2018-10-19T23:47:18.731Z,100885.00
2018-10-19T23:49:48.134Z,100891.00
2018-10-19T23:52:17.325Z,100882.00
2018-10-19T23:54:46.543Z,100886.00
2018-10-19T23:57:15.662Z,100885.00
2018-10-19T23:59:44.863Z,100879.00
